Check out our new BloomSky Weather System.

Active alerts


No alerts


Thunder radar  blitzortung!


Rain radar more information rain snow radar


Visit our other weather sites:

Template documentation
and downloads

And another site



Weather Underground History page Text

Daily Summary for January 9, 2017 Units:  Metric    English   Both
« Previous Day
Next Day »
Daily Weekly Monthly Yearly Custom
  High: Low: Average:
Temperature: -17.8 °C 5.9 °C 13.4 °C
Dew Point: -17.8 °C 2.5 °C 10.7 °C
Humidity: Humidity % 74 % 84 %
Wind Speed: 0 km/h 0 km/h 5 km/h
Wind Gust: 0 km/h - -
Wind:- - SE
Pressure: 0 hPa 1021.2 hPa -
Precipitation: 0 mm    
Historical Graphs
 
 
Tabular Data for January 9, 2017
Time Temperature Dew Point Pressure Wind Wind Speed Wind Gust Humidity Rainfall Rate (Hourly)
-17.8 °C -17.8 °C 0 hPa Calm     Humidity % 0 mm
00:04 5.9 °C 2.5 °C 1033.1 hPa Calm   3.2 km/h 79 % 0 mm
00:09 6 °C 2.6 °C 1033.1 hPa ENE 3.2 km/h 3.2 km/h 79 % 0 mm
00:14 6 °C 2.6 °C 1033.1 hPa South 1.6 km/h 4.8 km/h 79 % 0 mm
00:19 6 °C 2.6 °C 1033.1 hPa ENE 1.6 km/h 4.8 km/h 79 % 0 mm
00:24 6 °C 2.6 °C 1032.7 hPa Calm   4.8 km/h 79 % 0 mm
00:29 6 °C 2.6 °C 1032.7 hPa East 1.6 km/h 4.8 km/h 79 % 0 mm
00:34 6 °C 2.8 °C 1032.7 hPa Calm   3.2 km/h 80 % 0 mm
00:39 6.1 °C 2.9 °C 1032.7 hPa East 1.6 km/h 3.2 km/h 80 % 0 mm
00:44 6 °C 2.8 °C 1032.4 hPa Calm   3.2 km/h 80 % 0 mm
00:49 6.1 °C 2.9 °C 1032.4 hPa East 3.2 km/h 4.8 km/h 80 % 0 mm
00:54 6.1 °C 2.9 °C 1032.4 hPa ENE 3.2 km/h 4.8 km/h 80 % 0 mm
00:59 6.1 °C 2.9 °C 1032.4 hPa East 3.2 km/h 4.8 km/h 80 % 0 mm
01:04 6.1 °C 2.9 °C 1032.1 hPa ENE 3.2 km/h 4.8 km/h 80 % 0 mm
01:09 6.1 °C 2.9 °C 1032.1 hPa SE 1.6 km/h 6.4 km/h 80 % 0 mm
01:14 6.1 °C 2.9 °C 1031.7 hPa Calm   6.4 km/h 80 % 0 mm
01:19 6.1 °C 2.9 °C 1032.1 hPa Calm   6.4 km/h 80 % 0 mm
01:24 6.1 °C 2.9 °C 1031.7 hPa Calm   6.4 km/h 80 % 0 mm
01:29 6.1 °C 3.1 °C 1031.7 hPa East 3.2 km/h 4.8 km/h 81 % 0 mm
01:34 6.1 °C 3.1 °C 1031.7 hPa ESE 1.6 km/h 4.8 km/h 81 % 0 mm
01:39 6.1 °C 3.1 °C 1031.7 hPa Calm   6.4 km/h 81 % 0 mm
01:44 6.2 °C 3.2 °C 1031.7 hPa ESE 3.2 km/h 6.4 km/h 81 % 0 mm
01:49 6.2 °C 3.2 °C 1031.7 hPa Calm   6.4 km/h 81 % 0 mm
01:54 6.2 °C 3.4 °C 1031.7 hPa Calm   6.4 km/h 82 % 0 mm
01:59 6.2 °C 3.4 °C 1031.7 hPa NNE 6.4 km/h 6.4 km/h 82 % 0 mm
02:04 6.3 °C 3.5 °C 1031.4 hPa Calm   6.4 km/h 82 % 0 mm
02:09 6.3 °C 3.5 °C 1031.4 hPa East 1.6 km/h 6.4 km/h 82 % 0 mm
02:14 6.3 °C 3.6 °C 1031.4 hPa East 1.6 km/h 6.4 km/h 83 % 0 mm
02:20 6.4 °C 3.7 °C 1031.4 hPa ESE 1.6 km/h 8 km/h 83 % 0 mm
02:25 6.4 °C 3.7 °C 1031.4 hPa East 1.6 km/h 8 km/h 83 % 0 mm
02:30 6.4 °C 3.7 °C 1031.4 hPa ENE 1.6 km/h 8 km/h 83 % 0 mm
02:35 6.5 °C 3.8 °C 1031.7 hPa Calm   6.4 km/h 83 % 0 mm
02:40 6.6 °C 3.9 °C 1031.4 hPa ENE 1.6 km/h 6.4 km/h 83 % 0 mm
02:45 6.6 °C 3.9 °C 1031.4 hPa Calm   6.4 km/h 83 % 0 mm
02:50 6.6 °C 4.1 °C 1031.7 hPa NNW 1.6 km/h 6.4 km/h 84 % 0 mm
02:55 6.6 °C 4.1 °C 1031.7 hPa NE 3.2 km/h 6.4 km/h 84 % 0 mm
03:00 6.6 °C 4.1 °C 1031.4 hPa Calm   4.8 km/h 84 % 0 mm
03:05 6.6 °C 4.3 °C 1031.4 hPa East 1.6 km/h 8 km/h 85 % 0 mm
03:10 6.6 °C 4.3 °C 1031.4 hPa East 3.2 km/h 8 km/h 85 % 0 mm
03:15 6.7 °C 4.4 °C 1031 hPa East 3.2 km/h 8 km/h 85 % 0 mm
03:20 6.7 °C 4.4 °C 1031 hPa North 1.6 km/h 8 km/h 85 % 0 mm
03:25 6.7 °C 4.4 °C 1031 hPa Calm   8 km/h 85 % 0 mm
03:30 6.7 °C 4.4 °C 1031 hPa Calm   8 km/h 85 % 0 mm
03:35 6.7 °C 4.5 °C 1031 hPa NE 4.8 km/h 8 km/h 86 % 0 mm
03:40 6.8 °C 4.6 °C 1031 hPa Calm   9.7 km/h 86 % 0 mm
03:45 6.8 °C 4.6 °C 1031 hPa East 1.6 km/h 9.7 km/h 86 % 0 mm
03:50 6.9 °C 4.7 °C 1031 hPa Calm   9.7 km/h 86 % 0 mm
03:55 6.9 °C 4.7 °C 1030.7 hPa Calm   4.8 km/h 86 % 0 mm
04:00 7 °C 5 °C 1030.7 hPa Calm   4.8 km/h 87 % 0 mm
04:01 7 °C 5 °C 1030.7 hPa Calm   4.8 km/h 87 % 0 mm
04:06 7.1 °C 5.1 °C 1030.7 hPa Calm   4.8 km/h 87 % 0 mm
04:11 7.1 °C 5.1 °C 1030.7 hPa East 3.2 km/h 4.8 km/h 87 % 0 mm
04:16 7.2 °C 5.2 °C 1030.4 hPa SE 1.6 km/h 6.4 km/h 87 % 0 mm
04:21 7.2 °C 5.2 °C 1030.7 hPa Calm   6.4 km/h 87 % 0 mm
04:26 7.3 °C 5.3 °C 1030.4 hPa Calm   6.4 km/h 87 % 0 mm
04:31 7.3 °C 5.3 °C 1030.4 hPa Calm   6.4 km/h 87 % 0 mm
04:36 7.3 °C 5.3 °C 1030.4 hPa Calm   6.4 km/h 87 % 0 mm
04:41 7.3 °C 5.3 °C 1030.4 hPa Calm   6.4 km/h 87 % 0 mm
04:46 7.3 °C 5.3 °C 1030.4 hPa ENE 4.8 km/h 6.4 km/h 87 % 0 mm
04:51 7.4 °C 5.5 °C 1030.4 hPa East 1.6 km/h 8 km/h 88 % 0 mm
04:56 7.4 °C 5.5 °C 1030 hPa ENE 4.8 km/h 8 km/h 88 % 0 mm
05:01 7.4 °C 5.5 °C 1030 hPa Calm   8 km/h 88 % 0 mm
05:06 7.5 °C 5.6 °C 1030 hPa East 6.4 km/h 6.4 km/h 88 % 0 mm
05:11 7.5 °C 5.6 °C 1030 hPa East 1.6 km/h 6.4 km/h 88 % 0 mm
05:16 7.6 °C 5.7 °C 1030 hPa North 1.6 km/h 8 km/h 88 % 0 mm
05:21 7.6 °C 5.7 °C 1029.7 hPa ENE 1.6 km/h 8 km/h 88 % 0 mm
05:26 7.6 °C 5.7 °C 1029.7 hPa ENE 3.2 km/h 8 km/h 88 % 0 mm
05:31 7.7 °C 5.8 °C 1029.7 hPa Calm   6.4 km/h 88 % 0 mm
05:36 7.7 °C 5.8 °C 1029.7 hPa NNW 1.6 km/h 6.4 km/h 88 % 0 mm
05:41 7.8 °C 5.9 °C 1029.7 hPa Calm   8 km/h 88 % 0 mm
05:46 7.8 °C 5.9 °C 1029.7 hPa Calm   8 km/h 88 % 0 mm
05:51 7.8 °C 5.9 °C 1029.7 hPa Calm   8 km/h 88 % 0 mm
05:56 7.9 °C 6 °C 1029.7 hPa East 1.6 km/h 8 km/h 88 % 0 mm
06:01 7.9 °C 6.2 °C 1029.7 hPa Calm   6.4 km/h 89 % 0 mm
06:06 7.9 °C 6.2 °C 1029.7 hPa Calm   6.4 km/h 89 % 0 mm
06:11 8.1 °C 6.4 °C 1029.7 hPa East 1.6 km/h 6.4 km/h 89 % 0 mm
06:16 8.1 °C 6.4 °C 1029.7 hPa ESE 3.2 km/h 6.4 km/h 89 % 0 mm
06:21 8.2 °C 6.5 °C 1029.7 hPa ESE 1.6 km/h 6.4 km/h 89 % 0 mm
06:26 8.2 °C 6.5 °C 1029.7 hPa East 3.2 km/h 8 km/h 89 % 0 mm
06:31 8.2 °C 6.5 °C 1029.7 hPa Calm   8 km/h 89 % 0 mm
06:36 8.3 °C 6.6 °C 1029.7 hPa Calm   8 km/h 89 % 0 mm
06:41 8.3 °C 6.6 °C 1029.7 hPa SE 3.2 km/h 8 km/h 89 % 0 mm
06:46 8.3 °C 6.6 °C 1029.7 hPa East 1.6 km/h 8 km/h 89 % 0 mm
06:51 8.3 °C 6.6 °C 1029.7 hPa NE 3.2 km/h 8 km/h 89 % 0 mm
06:56 8.3 °C 6.6 °C 1029.7 hPa ESE 6.4 km/h 8 km/h 89 % 0 mm
07:01 8.4 °C 6.7 °C 1029.7 hPa Calm   8 km/h 89 % 0 mm
07:06 8.4 °C 6.7 °C 1029.7 hPa ESE 1.6 km/h 8 km/h 89 % 0 mm
07:11 8.4 °C 6.7 °C 1029.7 hPa Calm   8 km/h 89 % 0 mm
07:16 8.5 °C 6.8 °C 1029.7 hPa ESE 1.6 km/h 9.7 km/h 89 % 0 mm
07:21 8.6 °C 6.9 °C 1029.7 hPa ESE 1.6 km/h 9.7 km/h 89 % 0 mm
07:26 8.6 °C 7.1 °C 1029.7 hPa SE 3.2 km/h 9.7 km/h 90 % 0 mm
07:31 8.7 °C 7.2 °C 1029.7 hPa East 1.6 km/h 8 km/h 90 % 0 mm
07:36 8.8 °C 7.2 °C 1029.7 hPa East 3.2 km/h 8 km/h 90 % 0 mm
07:41 8.9 °C 7.3 °C 1029.7 hPa ESE 3.2 km/h 8 km/h 90 % 0 mm
07:46 9 °C 7.4 °C 1029.7 hPa ESE 1.6 km/h 8 km/h 90 % 0 mm
07:51 9.1 °C 7.5 °C 1030 hPa Calm   8 km/h 90 % 0 mm
07:56 9.1 °C 7.5 °C 1030 hPa SE 1.6 km/h 8 km/h 90 % 0 mm
08:01 9.3 °C 7.7 °C 1030 hPa ESE 8 km/h 9.7 km/h 90 % 0 mm
08:06 9.4 °C 7.8 °C 1029.7 hPa ENE 3.2 km/h 9.7 km/h 90 % 0 mm
08:11 9.6 °C 8.2 °C 1029.7 hPa East 6.4 km/h 9.7 km/h 91 % 0 mm
08:16 9.7 °C 8.3 °C 1029.7 hPa SSW 1.6 km/h 9.7 km/h 91 % 0 mm
08:21 9.8 °C 8.4 °C 1029.7 hPa East 1.6 km/h 9.7 km/h 91 % 0 mm
08:26 9.9 °C 8.5 °C 1030 hPa ESE 1.6 km/h 9.7 km/h 91 % 0 mm
08:31 10.1 °C 8.7 °C 1030 hPa SE 4.8 km/h 8 km/h 91 % 0 mm
08:36 10.2 °C 8.8 °C 1030 hPa Calm   8 km/h 91 % 0 mm
08:41 10.3 °C 8.9 °C 1030 hPa ESE 1.6 km/h 8 km/h 91 % 0 mm
08:46 10.5 °C 9.1 °C 1030 hPa East 1.6 km/h 8 km/h 91 % 0 mm
08:51 10.6 °C 9 °C 1030.4 hPa ESE 1.6 km/h 8 km/h 90 % 0 mm
08:56 10.8 °C 9.2 °C 1030.4 hPa ESE 3.2 km/h 8 km/h 90 % 0 mm
09:02 10.9 °C 9.3 °C 1030.4 hPa SE 3.2 km/h 8 km/h 90 % 0 mm
09:07 11 °C 9.4 °C 1030.4 hPa Calm   8 km/h 90 % 0 mm
09:12 11.2 °C 9.6 °C 1030.4 hPa SSE 3.2 km/h 8 km/h 90 % 0 mm
09:17 11.3 °C 9.7 °C 1030.4 hPa SE 3.2 km/h 8 km/h 90 % 0 mm
09:22 11.4 °C 9.8 °C 1030.4 hPa ESE 4.8 km/h 8 km/h 90 % 0 mm
09:27 11.6 °C 10 °C 1030.4 hPa ESE 1.6 km/h 8 km/h 90 % 0 mm
09:32 11.7 °C 10.1 °C 1030.4 hPa East 6.4 km/h 8 km/h 90 % 0 mm
09:37 11.8 °C 10.2 °C 1030.4 hPa East 3.2 km/h 8 km/h 90 % 0 mm
09:42 12.1 °C 10.5 °C 1030.4 hPa ESE 6.4 km/h 11.3 km/h 90 % 0 mm
09:47 12.3 °C 10.7 °C 1030.4 hPa ESE 8 km/h 11.3 km/h 90 % 0 mm
09:52 12.4 °C 10.8 °C 1030.4 hPa SE 6.4 km/h 11.3 km/h 90 % 0 mm
09:57 12.7 °C 11.1 °C 1030.4 hPa South 8 km/h 17.7 km/h 90 % 0 mm
10:02 12.9 °C 11.3 °C 1030.4 hPa SE 1.6 km/h 17.7 km/h 90 % 0 mm
10:07 13.2 °C 11.4 °C 1030.7 hPa NE 4.8 km/h 17.7 km/h 89 % 0 mm
10:12 13.5 °C 11.7 °C 1030.4 hPa SSE 3.2 km/h 12.9 km/h 89 % 0 mm
10:17 13.6 °C 11.6 °C 1030.4 hPa ESE 4.8 km/h 16.1 km/h 88 % 0 mm
10:22 13.9 °C 11.9 °C 1030.4 hPa East 8 km/h 16.1 km/h 88 % 0 mm
10:27 14.2 °C 12.1 °C 1030.4 hPa SSE 4.8 km/h 16.1 km/h 87 % 0 mm
10:32 14.4 °C 12.3 °C 1030 hPa ESE 6.4 km/h 12.9 km/h 87 % 0 mm
10:37 14.7 °C 12.6 °C 1030 hPa ESE 9.7 km/h 17.7 km/h 87 % 0 mm
10:42 14.9 °C 12.4 °C 1029.7 hPa SE 11.3 km/h 22.5 km/h 85 % 0 mm
10:47 15.2 °C 12.7 °C 1029.7 hPa SE 11.3 km/h 22.5 km/h 85 % 0 mm
10:52 15.6 °C 12.9 °C 1029.7 hPa ESE 12.9 km/h 24.1 km/h 84 % 0 mm
10:57 15.7 °C 13 °C 1029.7 hPa SE 4.8 km/h 24.1 km/h 84 % 0 mm
11:02 15.9 °C 13 °C 1029.7 hPa ESE 8 km/h 24.1 km/h 83 % 0 mm
11:07 16.2 °C 13.1 °C 1029.3 hPa SE 11.3 km/h 20.9 km/h 82 % 0 mm
11:12 16.5 °C 13.2 °C 1029.3 hPa East 9.7 km/h 22.5 km/h 81 % 0 mm
11:17 16.6 °C 13.1 °C 1029.3 hPa SSW 11.3 km/h 27.4 km/h 80 % 0 mm
11:22 16.7 °C 13.4 °C 1029 hPa SE 8 km/h 27.4 km/h 81 % 0 mm
11:27 16.7 °C 13.2 °C 1029 hPa SE 8 km/h 27.4 km/h 80 % 0 mm
11:32 16.8 °C 13.5 °C 1029 hPa South 6.4 km/h 22.5 km/h 81 % 0 mm
11:37 16.9 °C 13.4 °C 1028.7 hPa SE 9.7 km/h 20.9 km/h 80 % 0 mm
11:42 16.9 °C 13.4 °C 1028.7 hPa SE 11.3 km/h 20.9 km/h 80 % 0 mm
11:47 17.1 °C 13.6 °C 1028.3 hPa ESE 12.9 km/h 20.9 km/h 80 % 0 mm
11:52 17.3 °C 13.8 °C 1028.3 hPa SE 14.5 km/h 20.9 km/h 80 % 0 mm
11:57 17.6 °C 13.9 °C 1028 hPa SE 9.7 km/h 24.1 km/h 79 % 0 mm
12:02 18 °C 14.1 °C 1027.7 hPa South 14.5 km/h 24.1 km/h 78 % 0 mm
12:07 18.2 °C 13.9 °C 1027.7 hPa SE 16.1 km/h 24.1 km/h 76 % 0 mm
12:12 18.4 °C 13.9 °C 1027.7 hPa SSE 11.3 km/h 25.7 km/h 75 % 0 mm
12:17 18.4 °C 13.7 °C 1027.7 hPa SE 16.1 km/h 29 km/h 74 % 0 mm
12:22 18.3 °C 13.8 °C 1027.3 hPa SE 9.7 km/h 29 km/h 75 % 0 mm
12:27 18.4 °C 14.1 °C 1027.3 hPa SSE 19.3 km/h 29 km/h 76 % 0 mm
12:32 18.4 °C 13.9 °C 1027 hPa SSE 14.5 km/h 29 km/h 75 % 0 mm
12:37 18.3 °C 14 °C 1027 hPa SE 9.7 km/h 25.7 km/h 76 % 0 mm
12:42 18.4 °C 13.9 °C 1026.6 hPa ESE 9.7 km/h 25.7 km/h 75 % 0 mm
12:47 18.4 °C 13.9 °C 1026.6 hPa SSE 9.7 km/h 20.9 km/h 75 % 0 mm
12:52 18.3 °C 13.8 °C 1026.6 hPa SSE 6.4 km/h 20.9 km/h 75 % 0 mm
12:57 18.4 °C 13.9 °C 1026.3 hPa SSE 11.3 km/h 24.1 km/h 75 % 0 mm
13:02 18.4 °C 14.1 °C 1026.3 hPa East 9.7 km/h 24.1 km/h 76 % 0 mm
13:07 18.3 °C 14 °C 1026.3 hPa ESE 14.5 km/h 24.1 km/h 76 % 0 mm
13:12 18.3 °C 14 °C 1026 hPa South 8 km/h 17.7 km/h 76 % 0 mm
13:17 18.3 °C 14 °C 1026 hPa SE 4.8 km/h 17.7 km/h 76 % 0 mm
13:22 18.2 °C 13.9 °C 1026 hPa SSE 11.3 km/h 17.7 km/h 76 % 0 mm
13:27 18.2 °C 14.1 °C 1026 hPa ESE 17.7 km/h 20.9 km/h 77 % 0 mm
13:33 18.1 °C 14 °C 1026 hPa SE 8 km/h 20.9 km/h 77 % 0 mm
13:38 18.1 °C 14 °C 1026 hPa SE 4.8 km/h 22.5 km/h 77 % 0 mm
13:43 18.1 °C 14 °C 1026 hPa SSE 8 km/h 22.5 km/h 77 % 0 mm
13:48 18.2 °C 14.3 °C 1025.6 hPa SE 8 km/h 22.5 km/h 78 % 0 mm
13:53 18.3 °C 14.2 °C 1025.6 hPa SSE 6.4 km/h 22.5 km/h 77 % 0 mm
13:58 18.4 °C 14.3 °C 1025.6 hPa ESE 20.9 km/h 22.5 km/h 77 % 0 mm
14:03 18.5 °C 14.4 °C 1025.3 hPa SE 12.9 km/h 22.5 km/h 77 % 0 mm
14:08 18.8 °C 14.5 °C 1025.3 hPa SE 6.4 km/h 22.5 km/h 76 % 0 mm
14:13 18.8 °C 14.5 °C 1025.3 hPa SE 8 km/h 22.5 km/h 76 % 0 mm
14:18 18.8 °C 14.5 °C 1024.9 hPa SSE 8 km/h 20.9 km/h 76 % 0 mm
14:23 18.8 °C 14.5 °C 1024.9 hPa East 9.7 km/h 20.9 km/h 76 % 0 mm
14:28 18.8 °C 14.5 °C 1024.9 hPa SSE 11.3 km/h 20.9 km/h 76 % 0 mm
14:33 18.8 °C 14.5 °C 1024.9 hPa East 11.3 km/h 20.9 km/h 76 % 0 mm
14:38 18.7 °C 14.4 °C 1024.9 hPa SE 8 km/h 20.9 km/h 76 % 0 mm
14:43 18.6 °C 14.3 °C 1024.9 hPa SE 4.8 km/h 20.9 km/h 76 % 0 mm
14:48 18.6 °C 14.5 °C 1024.9 hPa East 12.9 km/h 20.9 km/h 77 % 0 mm
14:53 18.6 °C 14.5 °C 1024.9 hPa SE 8 km/h 17.7 km/h 77 % 0 mm
14:58 18.6 °C 14.5 °C 1024.9 hPa ESE 8 km/h 17.7 km/h 77 % 0 mm
15:03 18.6 °C 14.7 °C 1024.9 hPa SE 3.2 km/h 17.7 km/h 78 % 0 mm
15:08 18.4 °C 14.5 °C 1024.9 hPa South 4.8 km/h 17.7 km/h 78 % 0 mm
15:13 18.4 °C 14.5 °C 1024.6 hPa East 8 km/h 17.7 km/h 78 % 0 mm
15:18 18.4 °C 14.7 °C 1024.6 hPa SE 8 km/h 17.7 km/h 79 % 0 mm
15:23 18.4 °C 14.5 °C 1024.6 hPa SE 12.9 km/h 17.7 km/h 78 % 0 mm
15:28 18.4 °C 14.5 °C 1024.6 hPa SSE 12.9 km/h 17.7 km/h 78 % 0 mm
15:33 18.5 °C 14.6 °C 1024.3 hPa East 4.8 km/h 20.9 km/h 78 % 0 mm
15:38 18.4 °C 14.5 °C 1024.3 hPa ESE 6.4 km/h 20.9 km/h 78 % 0 mm
15:43 18.4 °C 14.5 °C 1024.3 hPa East 4.8 km/h 20.9 km/h 78 % 0 mm
15:48 18.4 °C 14.5 °C 1024.3 hPa ESE 8 km/h 16.1 km/h 78 % 0 mm
15:53 18.4 °C 14.5 °C 1024.3 hPa ESE 8 km/h 16.1 km/h 78 % 0 mm
15:58 18.4 °C 14.5 °C 1024.3 hPa East 4.8 km/h 16.1 km/h 78 % 0 mm
16:03 18.3 °C 14.6 °C 1024.3 hPa SE 8 km/h 16.1 km/h 79 % 0 mm
16:08 18.2 °C 14.5 °C 1024.3 hPa SE 3.2 km/h 11.3 km/h 79 % 0 mm
16:13 18.1 °C 14.6 °C 1024.3 hPa ESE 3.2 km/h 11.3 km/h 80 % 0 mm
16:18 18 °C 14.5 °C 1024.6 hPa SE 3.2 km/h 11.3 km/h 80 % 0 mm
16:23 17.9 °C 14.6 °C 1024.6 hPa ESE 4.8 km/h 12.9 km/h 81 % 0 mm
16:28 17.9 °C 14.8 °C 1024.6 hPa SSE 6.4 km/h 12.9 km/h 82 % 0 mm
16:33 17.8 °C 14.9 °C 1024.3 hPa ESE 6.4 km/h 12.9 km/h 83 % 0 mm
16:38 17.8 °C 14.9 °C 1024.3 hPa SSE 4.8 km/h 11.3 km/h 83 % 0 mm
16:43 17.8 °C 15.1 °C 1024.3 hPa SE 3.2 km/h 11.3 km/h 84 % 0 mm
16:48 18 °C 15.1 °C 1024.3 hPa ESE 6.4 km/h 8 km/h 83 % 0 mm
16:53 18 °C 14.9 °C 1023.9 hPa ESE 3.2 km/h 9.7 km/h 82 % 0 mm
16:58 17.9 °C 14.8 °C 1023.9 hPa ENE 3.2 km/h 9.7 km/h 82 % 0 mm
17:03 17.8 °C 14.9 °C 1023.9 hPa SE 6.4 km/h 9.7 km/h 83 % 0 mm
17:08 17.8 °C 14.9 °C 1023.9 hPa SE 3.2 km/h 9.7 km/h 83 % 0 mm
17:13 17.8 °C 14.9 °C 1023.9 hPa SE 4.8 km/h 9.7 km/h 83 % 0 mm
17:18 17.8 °C 14.7 °C 1023.9 hPa ESE 3.2 km/h 9.7 km/h 82 % 0 mm
17:23 17.8 °C 14.7 °C 1023.9 hPa East 1.6 km/h 9.7 km/h 82 % 0 mm
17:28 17.7 °C 14.8 °C 1023.9 hPa ESE 3.2 km/h 9.7 km/h 83 % 0 mm
17:33 17.7 °C 14.8 °C 1023.6 hPa East 1.6 km/h 8 km/h 83 % 0 mm
17:38 17.6 °C 14.7 °C 1023.6 hPa SE 3.2 km/h 8 km/h 83 % 0 mm
17:43 17.6 °C 14.7 °C 1023.6 hPa SE 4.8 km/h 8 km/h 83 % 0 mm
17:49 17.5 °C 14.6 °C 1023.6 hPa ESE 4.8 km/h 8 km/h 83 % 0 mm
17:54 17.6 °C 14.7 °C 1023.6 hPa SE 3.2 km/h 8 km/h 83 % 0 mm
17:59 17.6 °C 14.7 °C 1023.6 hPa SSE 4.8 km/h 8 km/h 83 % 0 mm
18:04 17.7 °C 14.8 °C 1023.2 hPa SSE 4.8 km/h 8 km/h 83 % 0 mm
18:09 17.8 °C 14.9 °C 1023.2 hPa SSE 4.8 km/h 9.7 km/h 83 % 0 mm
18:14 17.8 °C 14.9 °C 1023.2 hPa ESE 6.4 km/h 9.7 km/h 83 % 0 mm
18:19 17.9 °C 15 °C 1023.2 hPa SSW 6.4 km/h 9.7 km/h 83 % 0 mm
18:24 17.9 °C 15 °C 1023.2 hPa ESE 12.9 km/h 12.9 km/h 83 % 0 mm
18:29 18 °C 15.1 °C 1023.2 hPa SE 11.3 km/h 17.7 km/h 83 % 0 mm
18:34 18.1 °C 15.2 °C 1023.2 hPa SE 9.7 km/h 17.7 km/h 83 % 0 mm
18:39 18.1 °C 15.2 °C 1023.2 hPa SSE 11.3 km/h 17.7 km/h 83 % 0 mm
18:44 18.1 °C 15.2 °C 1023.2 hPa ESE 8 km/h 16.1 km/h 83 % 0 mm
18:49 18.1 °C 15.2 °C 1023.2 hPa South 4.8 km/h 14.5 km/h 83 % 0 mm
18:54 18.1 °C 15.2 °C 1022.9 hPa ESE 3.2 km/h 14.5 km/h 83 % 0 mm
18:59 18.1 °C 15.2 °C 1022.9 hPa SE 6.4 km/h 11.3 km/h 83 % 0 mm
19:00 18.1 °C 15.2 °C 1022.9 hPa SE 3.2 km/h 14.5 km/h 83 % 0 mm
19:05 18.1 °C 15.2 °C 1022.9 hPa SE 6.4 km/h 14.5 km/h 83 % 0 mm
19:10 18 °C 15.1 °C 1022.9 hPa SE 8 km/h 14.5 km/h 83 % 0 mm
19:15 17.9 °C 15.2 °C 1022.9 hPa South 8 km/h 14.5 km/h 84 % 0 mm
19:20 17.8 °C 15.1 °C 1022.9 hPa SSE 3.2 km/h 14.5 km/h 84 % 0 mm
19:25 17.7 °C 15 °C 1022.9 hPa SE 9.7 km/h 14.5 km/h 84 % 0 mm
19:30 17.7 °C 15.1 °C 1022.9 hPa SSE 4.8 km/h 14.5 km/h 85 % 0 mm
19:31 17.7 °C 15.1 °C 1022.9 hPa SSE 3.2 km/h 14.5 km/h 85 % 0 mm
19:36 17.6 °C 15 °C 1022.9 hPa SE 8 km/h 12.9 km/h 85 % 0 mm
19:41 17.5 °C 14.9 °C 1022.9 hPa SSE 3.2 km/h 12.9 km/h 85 % 0 mm
19:46 17.4 °C 14.9 °C 1022.9 hPa SE 4.8 km/h 11.3 km/h 85 % 0 mm
19:51 17.3 °C 14.9 °C 1023.2 hPa SSE 4.8 km/h 11.3 km/h 86 % 0 mm
19:56 17.3 °C 14.9 °C 1023.2 hPa South 6.4 km/h 11.3 km/h 86 % 0 mm
20:01 17.3 °C 14.9 °C 1023.2 hPa SW 6.4 km/h 12.9 km/h 86 % 0 mm
20:06 17.3 °C 14.9 °C 1023.2 hPa SE 1.6 km/h 12.9 km/h 86 % 0 mm
20:11 17.2 °C 14.8 °C 1023.2 hPa South 6.4 km/h 12.9 km/h 86 % 0 mm
20:16 17.2 °C 14.8 °C 1022.9 hPa SSE 3.2 km/h 11.3 km/h 86 % 0 mm
20:21 17.1 °C 14.7 °C 1022.9 hPa South 1.6 km/h 11.3 km/h 86 % 0 mm
20:26 17.1 °C 14.9 °C 1023.2 hPa SE 4.8 km/h 11.3 km/h 87 % 0 mm
20:31 17.1 °C 14.9 °C 1022.9 hPa SSE 4.8 km/h 12.9 km/h 87 % 0 mm
20:36 17.1 °C 14.9 °C 1022.9 hPa ESE 8 km/h 12.9 km/h 87 % 0 mm
20:41 17.1 °C 14.9 °C 1022.9 hPa South 6.4 km/h 12.9 km/h 87 % 0 mm
20:46 17.1 °C 14.9 °C 1022.9 hPa SW 4.8 km/h 12.9 km/h 87 % 0 mm
20:51 17 °C 14.8 °C 1022.9 hPa SE 3.2 km/h 9.7 km/h 87 % 0 mm
20:57 17 °C 14.8 °C 1022.9 hPa SE 4.8 km/h 9.7 km/h 87 % 0 mm
21:02 16.9 °C 14.7 °C 1022.9 hPa SSW 4.8 km/h 9.7 km/h 87 % 0 mm
21:07 16.9 °C 14.7 °C 1022.9 hPa SE 4.8 km/h 9.7 km/h 87 % 0 mm
21:12 16.9 °C 14.7 °C 1022.9 hPa SSE 4.8 km/h 9.7 km/h 87 % 0 mm
21:17 16.9 °C 14.7 °C 1022.9 hPa SSE 3.2 km/h 11.3 km/h 87 % 0 mm
21:22 16.9 °C 14.7 °C 1022.9 hPa South 3.2 km/h 11.3 km/h 87 % 0 mm
21:27 16.9 °C 14.7 °C 1022.9 hPa SSE 4.8 km/h 11.3 km/h 87 % 0 mm
21:32 16.9 °C 14.7 °C 1022.9 hPa SE 3.2 km/h 11.3 km/h 87 % 0 mm
21:37 16.9 °C 14.7 °C 1022.9 hPa SSE 6.4 km/h 11.3 km/h 87 % 0 mm
21:42 17 °C 14.8 °C 1022.9 hPa South 4.8 km/h 11.3 km/h 87 % 0 mm
21:47 17.1 °C 14.9 °C 1022.9 hPa SE 6.4 km/h 11.3 km/h 87 % 0 mm
21:52 17.1 °C 14.9 °C 1022.9 hPa South 6.4 km/h 11.3 km/h 87 % 0 mm
21:57 17.1 °C 14.9 °C 1022.9 hPa SSE 3.2 km/h 9.7 km/h 87 % 0 mm
22:02 17.1 °C 14.9 °C 1022.9 hPa SE 4.8 km/h 12.9 km/h 87 % 0 mm
22:07 17.1 °C 14.9 °C 1022.9 hPa South 9.7 km/h 12.9 km/h 87 % 0 mm
22:12 17.1 °C 14.9 °C 1022.9 hPa SSE 4.8 km/h 17.7 km/h 87 % 0 mm
22:17 17.1 °C 14.9 °C 1022.6 hPa SE 6.4 km/h 17.7 km/h 87 % 0 mm
22:22 17.2 °C 15 °C 1022.6 hPa SE 8 km/h 17.7 km/h 87 % 0 mm
22:27 17.2 °C 15 °C 1022.6 hPa South 11.3 km/h 16.1 km/h 87 % 0 mm
22:32 17.3 °C 14.9 °C 1022.6 hPa SSE 11.3 km/h 22.5 km/h 86 % 0 mm
22:37 17.3 °C 14.9 °C 1022.6 hPa SE 8 km/h 22.5 km/h 86 % 0 mm
22:42 17.2 °C 15 °C 1022.2 hPa SSE 6.4 km/h 22.5 km/h 87 % 0 mm
22:47 17.2 °C 15 °C 1022.2 hPa SSE 8 km/h 17.7 km/h 87 % 0 mm
22:52 17.2 °C 14.8 °C 1022.2 hPa SSE 8 km/h 20.9 km/h 86 % 0 mm
22:57 17.1 °C 14.7 °C 1022.2 hPa SSW 6.4 km/h 20.9 km/h 86 % 0 mm
23:02 17.1 °C 14.9 °C 1022.2 hPa SSW 8 km/h 20.9 km/h 87 % 0 mm
23:07 17.1 °C 14.9 °C 1021.9 hPa SE 8 km/h 14.5 km/h 87 % 0 mm
23:12 17 °C 14.8 °C 1021.9 hPa South 8 km/h 14.5 km/h 87 % 0 mm
23:18 17.1 °C 14.9 °C 1021.9 hPa SSE 8 km/h 17.7 km/h 87 % 0 mm
23:23 17.1 °C 14.9 °C 1021.9 hPa ESE 3.2 km/h 17.7 km/h 87 % 0 mm
23:28 17.1 °C 14.9 °C 1021.6 hPa SSE 8 km/h 17.7 km/h 87 % 0 mm
23:33 17.1 °C 14.9 °C 1021.6 hPa SSE 4.8 km/h 17.7 km/h 87 % 0 mm
23:38 17.1 °C 14.9 °C 1021.6 hPa SSE 8 km/h 14.5 km/h 87 % 0 mm
23:43 17.1 °C 14.9 °C 1021.6 hPa South 8 km/h 14.5 km/h 87 % 0 mm
23:48 17.1 °C 14.9 °C 1021.6 hPa SSE 3.2 km/h 14.5 km/h 87 % 0 mm
23:53 17 °C 14.8 °C 1021.2 hPa South 9.7 km/h 14.5 km/h 87 % 0 mm
23:58 17 °C 14.8 °C 1021.2 hPa ESE 3.2 km/h 14.5 km/h 87 % 0 mm
Spring, Texas: Villages of Bridgestone
Compliments of Weather Underground - 2.75 mb

Script developed by  Jim McMurry - jmcmurry@mwt.net Adapted for the template by  Wim van der Kuil - Leuven-Template.eu

You find our weather info also at:

UK Metoffice

WeatherCloud

Weather Underground

Mid-South Weather Network

AWEKAS

Citizen Weather Observer Program (CWOP)

HAMweather, WeatherForYou, PWS Weather

Equipment we use:

Weather-station
Davis Vantage Vue

Weather-program
Meteohub

Weather-server
Debian 7.9 x86 (Guest)

Provider
DreamHost

Davis Vantage Vue

Meteohub

Debian 7.9 x86 (Guest)

DreamHost